createdAt,value
2018-02-23T00:09:38.694Z,30.90
2018-02-23T00:19:40.481Z,22.20
2018-02-23T00:29:42.252Z,24.40
2018-02-23T00:39:44.036Z,24.53
2018-02-23T00:49:45.573Z,24.00
2018-02-23T00:59:47.307Z,20.33
2018-02-23T01:09:48.955Z,23.17
2018-02-23T01:19:50.509Z,20.30
2018-02-23T01:29:52.115Z,25.27
2018-02-23T01:39:53.864Z,22.93
2018-02-23T01:49:55.423Z,30.27
2018-02-23T01:59:56.972Z,18.33
2018-02-23T02:09:58.462Z,22.37
2018-02-23T02:19:59.985Z,19.53
2018-02-23T02:30:02.273Z,25.33
2018-02-23T02:40:03.819Z,16.63
2018-02-23T02:50:05.318Z,18.40
2018-02-23T03:00:06.822Z,18.73
2018-02-23T03:10:08.504Z,23.07
2018-02-23T03:20:10.774Z,18.00
2018-02-23T03:30:12.438Z,25.03
2018-02-23T03:40:13.971Z,23.67
2018-02-23T03:50:15.604Z,19.00
2018-02-23T04:00:17.319Z,20.37
2018-02-23T04:10:19.772Z,18.97
2018-02-23T04:20:21.529Z,23.57
2018-02-23T04:30:23.106Z,26.03
2018-02-23T04:40:24.720Z,20.90
2018-02-23T04:50:26.237Z,13.20
2018-02-23T05:00:27.729Z,19.37
2018-02-23T05:10:29.261Z,16.27
2018-02-23T05:20:30.749Z,12.47
2018-02-23T05:30:32.976Z,13.67
2018-02-23T05:40:34.529Z,14.93
2018-02-23T05:50:36.224Z,15.80
2018-02-23T06:00:37.789Z,19.07
2018-02-23T06:10:39.370Z,15.87
2018-02-23T06:20:41.621Z,19.37
2018-02-23T06:30:43.148Z,27.57
2018-02-23T06:40:44.879Z,21.30
2018-02-23T06:50:47.272Z,23.07
2018-02-23T07:00:48.825Z,17.60
2018-02-23T07:10:50.372Z,16.03
2018-02-23T07:20:51.869Z,12.13
2018-02-23T07:30:53.369Z,15.30
2018-02-23T07:40:54.938Z,18.70
2018-02-23T07:50:56.591Z,17.07
2018-02-23T08:00:58.106Z,26.53
2018-02-23T08:10:59.702Z,25.63
2018-02-23T08:21:02.111Z,34.27
2018-02-23T08:31:03.656Z,22.97
2018-02-23T08:41:05.194Z,23.20
2018-02-23T08:51:06.748Z,23.50
2018-02-23T09:01:08.357Z,35.90
2018-02-23T09:11:09.909Z,27.00
2018-02-23T09:21:11.465Z,39.27
2018-02-23T09:31:12.991Z,32.07
2018-02-23T09:41:14.605Z,35.90
2018-02-23T09:51:16.232Z,27.70
2018-02-23T10:01:18.557Z,31.23
2018-02-23T10:11:20.208Z,36.37
2018-02-23T10:21:21.794Z,28.50
2018-02-23T10:31:23.332Z,22.40
2018-02-23T10:41:24.913Z,28.97
2018-02-23T10:51:26.490Z,30.73
2018-02-23T11:01:28.204Z,38.83
2018-02-23T11:11:29.780Z,35.90
2018-02-23T11:21:31.396Z,29.17
2018-02-23T11:31:32.945Z,34.37
2018-02-23T11:41:35.178Z,29.27
2018-02-23T11:51:36.761Z,28.40
2018-02-23T12:01:39.199Z,37.90
2018-02-23T12:11:40.795Z,35.60
2018-02-23T12:21:42.324Z,37.20
2018-02-23T12:31:44.030Z,35.20
2018-02-23T12:41:45.814Z,39.97
2018-02-23T12:51:47.403Z,33.33
2018-02-23T13:01:49.008Z,28.70
2018-02-23T13:11:50.510Z,34.50
2018-02-23T13:21:52.046Z,33.53
2018-02-23T13:31:54.505Z,40.30
2018-02-23T13:42:00.148Z,41.23
2018-02-23T13:52:01.780Z,40.13
2018-02-23T14:02:03.318Z,47.40
2018-02-23T14:12:04.907Z,41.77
2018-02-23T14:22:07.294Z,40.23
2018-02-23T14:32:15.947Z,37.97
2018-02-23T14:42:17.497Z,37.93
2018-02-23T14:52:19.796Z,47.03
2018-02-23T15:02:21.339Z,34.80
2018-02-23T15:12:22.916Z,44.77
2018-02-23T15:22:25.207Z,39.93
2018-02-23T15:32:28.599Z,40.60
2018-02-23T15:52:38.563Z,38.03
2018-02-23T16:02:40.071Z,41.20
2018-02-23T16:12:41.548Z,40.03
2018-02-23T16:22:43.033Z,37.77
2018-02-23T16:32:45.317Z,37.93
2018-02-23T16:42:46.942Z,35.63
2018-02-23T16:52:49.219Z,35.77
2018-02-23T17:02:50.975Z,35.40
2018-02-23T17:12:52.476Z,37.50
2018-02-23T17:22:53.986Z,42.60
2018-02-23T17:32:55.458Z,32.73
2018-02-23T17:42:58.315Z,26.00
2018-02-23T17:53:01.689Z,44.03
2018-02-23T18:03:03.271Z,38.17
2018-02-23T18:13:04.845Z,35.30
2018-02-23T18:23:06.437Z,40.10
2018-02-23T18:33:09.043Z,41.57
2018-02-23T18:43:11.452Z,41.07
2018-02-23T18:53:13.249Z,50.20
2018-02-23T19:03:14.823Z,47.00
2018-02-23T19:13:16.578Z,53.00
2018-02-23T19:23:18.809Z,49.33
2018-02-23T19:33:21.134Z,48.47
2018-02-23T19:43:22.738Z,51.47
2018-02-23T19:53:24.419Z,40.93
2018-02-23T20:03:26.705Z,49.00
2018-02-23T20:13:28.871Z,50.90
2018-02-23T20:23:30.562Z,53.90
2018-02-23T20:33:32.374Z,45.63
2018-02-23T20:43:34.244Z,51.40
2018-02-23T20:53:36.536Z,44.97
2018-02-23T21:03:38.518Z,59.40
2018-02-23T21:13:40.070Z,47.00
2018-02-23T21:23:42.377Z,57.17
2018-02-23T21:33:43.998Z,57.10
2018-02-23T21:43:45.691Z,62.10
2018-02-23T21:53:47.306Z,63.53
2018-02-23T22:03:48.864Z,56.97
2018-02-23T22:13:50.482Z,58.43
2018-02-23T22:23:52.238Z,52.07
2018-02-23T22:33:53.789Z,44.10
2018-02-23T22:43:55.346Z,61.47
2018-02-23T22:53:56.990Z,67.60
2018-02-23T23:03:58.550Z,47.90
2018-02-23T23:14:00.072Z,63.10
2018-02-23T23:24:04.927Z,70.37
2018-02-23T23:34:06.471Z,52.00
2018-02-23T23:44:07.994Z,49.70
2018-02-23T23:54:09.544Z,57.17
